Time;durP1;ratioP1;P1;durP2;ratioP2;P2;SDS_P1;SDS_P2;PMS_P1;PMS_P2;Temp;Humidity;BMP_temperature;BMP_pressure;BME280_temperature;BME280_humidity;BME280_pressure;Samples;Min_cycle;Max_cycle;Signal;HPM_P1;HPM_P2
2024/01/24 00:00:48;;;;;;;2.07;0.90;;;8.10;97.30;;;;;;2053535;28;20714;-66
2024/01/24 00:01:49;;;;;;;4.82;1.02;;;8.10;97.60;;;;;;2053948;28;20373;-66
2024/01/24 00:02:50;;;;;;;3.43;0.90;;;8.10;97.60;;;;;;2069616;28;20295;-66
2024/01/24 00:03:51;;;;;;;3.57;1.10;;;8.10;97.70;;;;;;2063242;28;20605;-66
2024/01/24 00:04:52;;;;;;;2.55;1.10;;;8.10;97.80;;;;;;2069167;28;20237;-67
2024/01/24 00:05:53;;;;;;;2.43;1.10;;;8.10;97.90;;;;;;2070245;28;20221;-66
2024/01/24 00:06:54;;;;;;;1.07;0.90;;;8.10;98.20;;;;;;2062720;28;20220;-65
2024/01/24 00:07:54;;;;;;;5.50;1.00;;;8.10;98.20;;;;;;2061277;28;20666;-67
2024/01/24 00:08:55;;;;;;;2.57;1.20;;;8.00;98.30;;;;;;2070224;28;20233;-65
2024/01/24 00:09:56;;;;;;;1.13;0.70;;;8.10;98.30;;;;;;2070147;28;20226;-66
2024/01/24 00:10:56;;;;;;;3.13;1.20;;;8.10;98.60;;;;;;2070319;28;20222;-67
2024/01/24 00:11:58;;;;;;;2.07;0.90;;;8.10;98.60;;;;;;2061587;28;20752;-66
2024/01/24 00:12:58;;;;;;;4.43;0.95;;;8.10;98.70;;;;;;2061434;28;20771;-67
2024/01/24 00:13:59;;;;;;;2.07;0.90;;;8.10;98.70;;;;;;2062433;28;20222;-66
2024/01/24 00:15:00;;;;;;;3.53;1.23;;;8.10;98.80;;;;;;2053788;28;20230;-66
2024/01/24 00:16:00;;;;;;;3.03;0.80;;;8.10;98.90;;;;;;2061761;28;20226;-67
2024/01/24 00:17:01;;;;;;;4.30;0.87;;;8.20;98.90;;;;;;2066311;28;20255;-66
2024/01/24 00:18:02;;;;;;;2.23;0.77;;;8.10;99.00;;;;;;2070457;28;20204;-67
2024/01/24 00:19:03;;;;;;;2.70;0.90;;;8.20;99.20;;;;;;2061884;28;20198;-68
2024/01/24 00:20:04;;;;;;;3.03;0.90;;;8.10;99.20;;;;;;2060713;28;20194;-66
2024/01/24 00:21:05;;;;;;;1.17;0.70;;;8.10;99.40;;;;;;2070939;28;20595;-68
2024/01/24 00:22:05;;;;;;;2.30;0.87;;;8.10;99.60;;;;;;2070485;28;20204;-66
2024/01/24 00:23:06;;;;;;;5.20;1.13;;;8.10;99.70;;;;;;2070270;28;20751;-65
2024/01/24 00:24:07;;;;;;;1.73;0.87;;;8.10;99.90;;;;;;2061521;28;20539;-66
2024/01/24 00:25:08;;;;;;;2.23;0.73;;;8.10;99.90;;;;;;2062386;28;20186;-66
2024/01/24 00:26:08;;;;;;;2.07;0.90;;;8.10;99.90;;;;;;2070311;28;20201;-65
2024/01/24 00:27:09;;;;;;;1.07;0.70;;;8.10;99.90;;;;;;2070518;28;20219;-67
2024/01/24 00:28:14;;;;;;;4.07;1.17;;;8.10;99.90;;;;;;2070172;28;20280;-66
2024/01/24 00:29:15;;;;;;;1.85;0.77;;;8.10;99.90;;;;;;2070504;28;21113;-66
2024/01/24 00:30:16;;;;;;;2.67;0.80;;;8.10;99.90;;;;;;2061697;28;20190;-65
2024/01/24 00:31:16;;;;;;;2.53;0.80;;;8.20;99.90;;;;;;2061912;28;21287;-66
2024/01/24 00:32:17;;;;;;;3.47;0.87;;;8.20;99.90;;;;;;2061295;28;20264;-67
2024/01/24 00:33:18;;;;;;;2.60;0.80;;;8.20;99.90;;;;;;2045752;28;20238;-65
2024/01/24 00:34:19;;;;;;;2.53;0.95;;;8.20;99.90;;;;;;2046528;28;20191;-66
2024/01/24 00:35:19;;;;;;;2.90;1.07;;;8.20;99.90;;;;;;2061841;28;20195;-67
2024/01/24 00:36:20;;;;;;;1.23;0.80;;;8.20;99.90;;;;;;2070406;28;20189;-66
2024/01/24 00:37:21;;;;;;;1.73;0.80;;;8.30;99.90;;;;;;2070356;28;20326;-67
2024/01/24 00:38:21;;;;;;;3.10;0.63;;;8.30;99.90;;;;;;2070382;28;20252;-66
2024/01/24 00:39:22;;;;;;;3.50;1.10;;;8.30;99.90;;;;;;2070017;28;20313;-65
2024/01/24 00:40:23;;;;;;;2.50;0.97;;;8.30;99.90;;;;;;2061787;28;20275;-66
2024/01/24 00:41:23;;;;;;;2.40;0.80;;;8.30;99.90;;;;;;2061479;28;20721;-66
2024/01/24 00:42:24;;;;;;;1.67;0.70;;;8.30;99.90;;;;;;2053863;28;20227;-66
2024/01/24 00:43:25;;;;;;;0.63;0.53;;;8.40;99.90;;;;;;2050212;28;20227;-65
2024/01/24 00:44:26;;;;;;;2.08;0.90;;;8.40;99.90;;;;;;2054763;28;20234;-66
2024/01/24 00:45:27;;;;;;;3.63;0.63;;;8.40;99.90;;;;;;2070981;28;20607;-66
2024/01/24 00:46:27;;;;;;;1.77;0.77;;;8.40;99.90;;;;;;2070389;28;20229;-67
2024/01/24 00:47:28;;;;;;;3.50;1.23;;;8.50;99.90;;;;;;2070221;28;20764;-66
2024/01/24 00:48:29;;;;;;;1.80;0.63;;;8.50;99.90;;;;;;2070467;28;20245;-65
2024/01/24 00:49:30;;;;;;;2.83;1.10;;;8.50;99.90;;;;;;2061634;28;20233;-66
2024/01/24 00:50:30;;;;;;;2.03;0.75;;;8.50;99.90;;;;;;2053777;28;20227;-66
2024/01/24 00:51:31;;;;;;;2.33;0.90;;;8.50;99.90;;;;;;2061183;28;20225;-67
2024/01/24 00:52:32;;;;;;;1.80;0.70;;;8.50;99.90;;;;;;2070715;28;20233;-65
2024/01/24 00:53:37;;;;;;;2.97;0.63;;;8.50;99.90;;;;;;2053376;28;20234;-65
2024/01/24 00:54:38;;;;;;;1.35;0.70;;;8.50;99.90;;;;;;2055371;28;20226;-66
2024/01/24 00:55:39;;;;;;;1.23;0.70;;;8.50;99.90;;;;;;2070377;28;20225;-66
2024/01/24 00:56:40;;;;;;;1.27;0.60;;;8.50;99.90;;;;;;2070464;28;20287;-67
2024/01/24 00:57:41;;;;;;;2.35;0.70;;;8.50;99.90;;;;;;2070097;28;20228;-66
2024/01/24 00:58:42;;;;;;;2.20;0.77;;;8.50;99.90;;;;;;2062541;28;20261;-66
2024/01/24 00:59:43;;;;;;;1.20;0.75;;;8.50;99.90;;;;;;2061756;28;20297;-66
2024/01/24 01:00:43;;;;;;;1.33;0.70;;;8.60;99.90;;;;;;2070524;28;20284;-67
2024/01/24 01:01:44;;;;;;;1.67;0.77;;;8.60;99.90;;;;;;2061382;28;20222;-66
2024/01/24 01:02:45;;;;;;;2.33;0.80;;;8.50;99.90;;;;;;2062076;28;20240;-65
2024/01/24 01:03:46;;;;;;;2.63;0.80;;;8.60;99.90;;;;;;2069721;28;20271;-66
2024/01/24 01:04:46;;;;;;;1.67;0.70;;;8.60;99.90;;;;;;2070537;28;20604;-65
2024/01/24 01:05:47;;;;;;;1.13;0.67;;;8.60;99.90;;;;;;2053547;28;20753;-66
2024/01/24 01:06:48;;;;;;;1.27;0.50;;;8.60;99.90;;;;;;2053779;28;20570;-66
2024/01/24 01:07:48;;;;;;;1.17;0.53;;;8.60;99.90;;;;;;2070307;28;20292;-65
2024/01/24 01:08:49;;;;;;;0.97;0.60;;;8.60;99.90;;;;;;2070292;28;20229;-66
2024/01/24 01:09:50;;;;;;;1.50;0.70;;;8.60;99.90;;;;;;2053287;28;20210;-65
2024/01/24 01:10:50;;;;;;;1.57;0.63;;;8.60;99.90;;;;;;2053525;28;20703;-65
2024/01/24 01:11:51;;;;;;;4.00;0.60;;;8.60;99.90;;;;;;2071160;28;20217;-65
2024/01/24 01:12:53;;;;;;;0.83;0.73;;;8.60;99.90;;;;;;2061623;28;20284;-67
2024/01/24 01:13:54;;;;;;;1.70;0.60;;;8.60;99.90;;;;;;2058001;28;20228;-67
2024/01/24 01:14:54;;;;;;;1.17;0.57;;;8.50;99.90;;;;;;2070427;28;20225;-65
2024/01/24 01:15:55;;;;;;;1.37;0.70;;;8.60;99.90;;;;;;2070107;28;20221;-66
2024/01/24 01:16:56;;;;;;;1.50;0.70;;;8.60;99.90;;;;;;2068503;28;20692;-66
2024/01/24 01:17:57;;;;;;;0.97;0.80;;;8.60;99.90;;;;;;2070433;28;20275;-66
2024/01/24 01:18:57;;;;;;;1.70;0.70;;;8.60;99.90;;;;;;2060878;28;20305;-65
2024/01/24 01:19:58;;;;;;;3.20;0.93;;;8.50;99.90;;;;;;2060989;28;20344;-66
2024/01/24 01:20:59;;;;;;;1.93;0.67;;;8.60;99.90;;;;;;2071006;28;20261;-67
2024/01/24 01:21:59;;;;;;;1.13;0.60;;;8.60;99.90;;;;;;2069443;28;20225;-66
2024/01/24 01:23:00;;;;;;;0.80;0.70;;;8.60;99.90;;;;;;2061012;28;20268;-66
2024/01/24 01:24:01;;;;;;;1.63;0.80;;;8.60;99.90;;;;;;2060318;28;20324;-65
2024/01/24 01:25:02;;;;;;;1.10;0.70;;;8.60;99.90;;;;;;2069841;28;20197;-64
2024/01/24 01:26:03;;;;;;;1.42;0.60;;;8.60;99.90;;;;;;2071013;28;20189;-64
2024/01/24 01:27:04;;;;;;;1.33;0.70;;;8.50;99.90;;;;;;2061061;28;20273;-66
2024/01/24 01:28:05;;;;;;;1.53;0.90;;;8.50;99.90;;;;;;2061419;28;20195;-66
2024/01/24 01:29:06;;;;;;;1.03;0.70;;;8.60;99.90;;;;;;2069835;28;20217;-65
2024/01/24 01:30:07;;;;;;;1.57;0.87;;;8.50;99.90;;;;;;2070131;28;20209;-66
2024/01/24 01:31:08;;;;;;;3.85;0.80;;;8.60;99.90;;;;;;2070076;28;20181;-67
2024/01/24 01:32:09;;;;;;;2.00;0.70;;;8.50;99.90;;;;;;2062088;28;20685;-66
2024/01/24 01:33:09;;;;;;;1.70;0.87;;;8.50;99.90;;;;;;2061213;28;20206;-65
2024/01/24 01:34:10;;;;;;;2.37;0.80;;;8.50;99.90;;;;;;2061232;28;20200;-66
2024/01/24 01:35:11;;;;;;;1.20;1.00;;;8.50;99.90;;;;;;2061902;28;20214;-67
2024/01/24 01:36:11;;;;;;;1.17;0.80;;;8.50;99.90;;;;;;2070183;28;20186;-66
2024/01/24 01:37:12;;;;;;;1.70;0.80;;;8.50;99.90;;;;;;2070120;28;20185;-65
2024/01/24 01:38:14;;;;;;;1.37;0.73;;;8.50;99.90;;;;;;2069830;28;20642;-66
2024/01/24 01:39:15;;;;;;;0.95;0.75;;;8.50;99.90;;;;;;2061250;28;20269;-65
2024/01/24 01:40:15;;;;;;;2.23;0.73;;;8.50;99.90;;;;;;2061475;28;20674;-67
2024/01/24 01:41:17;;;;;;;4.00;0.97;;;8.50;99.90;;;;;;2070138;28;20193;-67
2024/01/24 01:42:18;;;;;;;2.63;0.95;;;8.60;99.90;;;;;;2070279;28;20186;-67
2024/01/24 01:43:18;;;;;;;2.47;0.97;;;8.60;99.90;;;;;;2061200;28;20241;-67
2024/01/24 01:44:19;;;;;;;2.00;0.97;;;8.60;99.90;;;;;;2062394;28;20198;-66
2024/01/24 01:45:20;;;;;;;2.13;0.80;;;8.60;99.90;;;;;;2071869;28;20193;-67
2024/01/24 01:46:25;;;;;;;2.97;0.90;;;8.50;99.90;;;;;;2072340;28;20256;-65
2024/01/24 01:47:25;;;;;;;1.77;0.93;;;8.50;99.90;;;;;;2063833;28;20238;-66
2024/01/24 01:48:27;;;;;;;2.57;1.20;;;8.50;99.90;;;;;;2066864;28;20229;-67
2024/01/24 01:49:28;;;;;;;3.08;1.05;;;8.50;99.90;;;;;;2071153;28;20244;-65
2024/01/24 01:50:29;;;;;;;2.87;1.13;;;8.50;99.90;;;;;;2063107;28;20313;-66
2024/01/24 01:51:30;;;;;;;1.93;0.90;;;8.60;99.90;;;;;;2062893;28;20350;-66
2024/01/24 01:52:32;;;;;;;2.42;0.88;;;8.60;99.90;;;;;;2072584;28;20234;-66
2024/01/24 01:53:38;;;;;;;1.63;1.00;;;8.60;99.90;;;;;;2070967;28;20244;-66
2024/01/24 01:54:42;;;;;;;7.38;1.15;;;8.60;99.90;;;;;;2063038;28;20309;-66
2024/01/24 01:55:42;;;;;;;3.13;0.70;;;8.60;99.90;;;;;;2063869;28;20249;-67
2024/01/24 01:56:43;;;;;;;5.07;1.00;;;8.60;99.90;;;;;;2063759;28;20222;-65
2024/01/24 01:57:45;;;;;;;1.27;0.70;;;8.60;99.90;;;;;;2063834;28;20330;-65
2024/01/24 01:58:47;;;;;;;1.48;1.00;;;8.60;99.90;;;;;;2071410;28;20779;-66
2024/01/24 01:59:47;;;;;;;1.02;0.75;;;8.60;99.90;;;;;;2062921;28;20282;-66
2024/01/24 02:00:49;;;;;;;4.93;1.40;;;8.60;99.90;;;;;;2058572;28;20633;-66
2024/01/24 02:01:52;;;;;;;1.38;0.70;;;8.60;99.90;;;;;;2067059;28;20226;-66
2024/01/24 02:02:53;;;;;;;1.88;0.90;;;8.60;99.90;;;;;;2061772;28;20218;-66
2024/01/24 02:03:54;;;;;;;0.77;0.60;;;8.60;99.90;;;;;;2053795;28;20578;-65
2024/01/24 02:04:54;;;;;;;3.33;1.50;;;8.60;99.90;;;;;;2054045;28;20235;-67
2024/01/24 02:05:55;;;;;;;3.97;1.20;;;8.60;99.90;;;;;;2062786;28;20230;-66
2024/01/24 02:06:56;;;;;;;1.47;0.93;;;8.60;99.90;;;;;;2070367;28;20607;-66
2024/01/24 02:07:57;;;;;;;2.70;1.03;;;8.70;99.90;;;;;;2072048;28;20320;-66
2024/01/24 02:08:58;;;;;;;2.33;1.08;;;8.70;99.90;;;;;;2067753;28;20221;-66
2024/01/24 02:09:59;;;;;;;1.53;1.10;;;8.70;99.90;;;;;;2068974;28;20308;-67
2024/01/24 02:11:00;;;;;;;1.00;0.80;;;8.80;99.90;;;;;;2069351;28;20226;-66
2024/01/24 02:12:00;;;;;;;1.67;1.00;;;8.70;99.90;;;;;;2069706;28;20284;-65
2024/01/24 02:13:01;;;;;;;2.70;0.90;;;8.70;99.90;;;;;;2060646;28;20222;-64
2024/01/24 02:14:02;;;;;;;2.03;1.00;;;8.70;99.90;;;;;;2060999;28;20573;-66
2024/01/24 02:15:03;;;;;;;3.75;1.17;;;8.70;99.90;;;;;;2069623;28;20688;-68
2024/01/24 02:16:04;;;;;;;2.65;1.00;;;8.70;99.90;;;;;;2061855;28;20699;-67
2024/01/24 02:17:05;;;;;;;2.28;1.00;;;8.70;99.90;;;;;;2060701;28;20285;-67
2024/01/24 02:18:06;;;;;;;1.67;0.87;;;8.70;99.90;;;;;;2059878;28;20198;-67
2024/01/24 02:19:07;;;;;;;1.20;1.10;;;8.70;99.90;;;;;;2060526;28;20194;-66
2024/01/24 02:20:09;;;;;;;2.40;0.70;;;8.80;99.90;;;;;;2070756;28;20190;-67
2024/01/24 02:21:10;;;;;;;1.77;0.80;;;8.80;99.90;;;;;;2060564;28;20197;-65
2024/01/24 02:22:11;;;;;;;2.10;1.00;;;8.80;99.90;;;;;;2061565;28;20206;-66
2024/01/24 02:23:12;;;;;;;2.53;1.00;;;8.80;99.90;;;;;;2069258;28;20209;-65
2024/01/24 02:24:13;;;;;;;2.63;1.05;;;8.90;99.90;;;;;;2062581;28;20186;-66
2024/01/24 02:25:14;;;;;;;0.80;0.70;;;8.90;99.90;;;;;;2061973;28;20238;-65
2024/01/24 02:26:15;;;;;;;1.63;0.77;;;8.90;99.90;;;;;;2070020;28;20204;-66
2024/01/24 02:27:16;;;;;;;2.10;0.70;;;9.00;99.90;;;;;;2069161;28;20213;-65
2024/01/24 02:28:17;;;;;;;2.97;0.90;;;9.00;99.90;;;;;;2070162;28;20609;-65
2024/01/24 02:29:18;;;;;;;1.77;0.90;;;9.10;99.90;;;;;;2060652;28;20190;-66
2024/01/24 02:30:18;;;;;;;1.47;0.87;;;9.10;99.90;;;;;;2061818;28;20271;-67
2024/01/24 02:31:19;;;;;;;2.97;0.90;;;9.10;99.90;;;;;;2062061;28;20192;-66
2024/01/24 02:32:20;;;;;;;0.87;0.70;;;9.10;99.90;;;;;;2069996;28;20197;-65
2024/01/24 02:33:21;;;;;;;6.97;1.23;;;9.10;99.90;;;;;;2070023;28;20221;-67
2024/01/24 02:34:21;;;;;;;4.13;1.00;;;9.10;99.90;;;;;;2070340;28;20229;-66
2024/01/24 02:35:24;;;;;;;2.93;0.83;;;9.10;99.90;;;;;;2071682;28;20223;-65
2024/01/24 02:36:25;;;;;;;2.00;1.30;;;9.20;99.90;;;;;;2061138;28;20236;-66
2024/01/24 02:37:25;;;;;;;2.83;1.03;;;9.20;99.90;;;;;;2061685;28;20725;-66
2024/01/24 02:38:26;;;;;;;1.53;0.83;;;9.20;99.90;;;;;;2070394;28;20226;-66
2024/01/24 02:39:27;;;;;;;3.50;1.07;;;9.10;99.90;;;;;;2070186;28;20574;-67
2024/01/24 02:40:27;;;;;;;2.77;1.23;;;9.20;99.90;;;;;;2070494;28;20221;-66
2024/01/24 02:41:28;;;;;;;1.07;0.80;;;9.20;99.90;;;;;;2068993;28;20288;-65
2024/01/24 02:42:29;;;;;;;1.43;0.87;;;9.20;99.90;;;;;;2061856;28;20230;-66
2024/01/24 02:43:29;;;;;;;0.90;0.77;;;9.20;99.90;;;;;;2061296;28;20733;-66
2024/01/24 02:44:30;;;;;;;1.37;0.80;;;9.10;99.90;;;;;;2070272;28;20229;-66
2024/01/24 02:45:31;;;;;;;3.80;1.20;;;9.10;99.90;;;;;;2070326;28;20772;-65
2024/01/24 02:46:32;;;;;;;1.45;0.70;;;9.10;99.90;;;;;;2061942;28;20233;-67
2024/01/24 02:47:33;;;;;;;1.50;0.80;;;9.10;99.90;;;;;;2053511;28;20265;-66
2024/01/24 02:48:33;;;;;;;1.87;0.73;;;9.10;99.90;;;;;;2061921;28;20321;-66
2024/01/24 02:49:34;;;;;;;4.53;0.93;;;9.10;99.90;;;;;;2071589;28;20221;-66
2024/01/24 02:50:35;;;;;;;1.80;1.20;;;9.10;99.90;;;;;;2061749;28;20218;-65
2024/01/24 02:51:36;;;;;;;2.47;1.27;;;9.20;99.90;;;;;;2061605;28;20246;-66
2024/01/24 02:52:36;;;;;;;1.80;0.90;;;9.10;99.90;;;;;;2069856;28;20221;-65
2024/01/24 02:53:38;;;;;;;4.23;1.30;;;9.10;99.90;;;;;;2061890;28;20222;-66
2024/01/24 02:54:41;;;;;;;0.80;0.80;;;9.10;99.90;;;;;;2061332;28;20233;-66
2024/01/24 02:55:42;;;;;;;1.77;0.90;;;9.10;99.90;;;;;;2060001;28;20265;-65
2024/01/24 02:56:42;;;;;;;1.80;1.20;;;9.10;99.90;;;;;;2062162;28;20222;-66
2024/01/24 02:57:44;;;;;;;1.43;1.03;;;9.20;99.90;;;;;;2070343;28;20236;-66
2024/01/24 02:58:46;;;;;;;2.90;0.90;;;9.10;99.90;;;;;;2072131;28;20700;-66
2024/01/24 02:59:47;;;;;;;1.02;0.63;;;9.20;99.90;;;;;;2060133;28;20236;-66
2024/01/24 03:00:47;;;;;;;3.03;1.17;;;9.20;99.90;;;;;;2061366;28;20753;-67
2024/01/24 03:01:48;;;;;;;1.83;0.70;;;9.20;99.90;;;;;;2070349;28;20228;-66
2024/01/24 03:02:49;;;;;;;3.50;0.93;;;9.30;99.90;;;;;;2070920;28;20638;-66
2024/01/24 03:03:49;;;;;;;2.13;0.80;;;9.30;99.90;;;;;;2070388;28;20232;-66
2024/01/24 03:04:50;;;;;;;1.57;1.20;;;9.30;99.90;;;;;;2070172;28;20221;-65
2024/01/24 03:05:50;;;;;;;1.70;0.90;;;9.30;99.90;;;;;;2061028;28;20229;-66
2024/01/24 03:06:51;;;;;;;4.70;1.43;;;9.30;99.90;;;;;;2058513;28;20750;-66
2024/01/24 03:07:52;;;;;;;1.80;0.90;;;9.40;99.90;;;;;;2068978;28;20222;-67
2024/01/24 03:08:58;;;;;;;3.53;1.00;;;9.30;99.90;;;;;;2059427;28;20272;-65
2024/01/24 03:09:58;;;;;;;2.95;1.05;;;9.40;99.90;;;;;;2054391;28;20311;-65
2024/01/24 03:10:59;;;;;;;2.50;0.90;;;9.30;99.90;;;;;;2062032;28;20230;-65
2024/01/24 03:12:00;;;;;;;3.20;1.20;;;9.30;99.90;;;;;;2068406;28;20701;-67
2024/01/24 03:13:00;;;;;;;4.10;1.43;;;9.30;99.90;;;;;;2069366;28;20306;-65
2024/01/24 03:14:01;;;;;;;4.10;1.10;;;9.40;99.90;;;;;;2068631;28;20229;-66
2024/01/24 03:15:02;;;;;;;1.60;0.90;;;9.30;99.90;;;;;;2068249;28;20255;-66
2024/01/24 03:16:02;;;;;;;1.63;0.87;;;9.30;99.90;;;;;;2050478;28;20195;-65
2024/01/24 03:17:03;;;;;;;2.17;0.97;;;9.30;99.90;;;;;;2053249;28;20183;-66
2024/01/24 03:18:04;;;;;;;2.37;1.07;;;9.30;99.90;;;;;;2060551;28;20686;-67
2024/01/24 03:19:07;;;;;;;3.55;1.10;;;9.40;99.90;;;;;;2060852;28;20662;-66
2024/01/24 03:20:08;;;;;;;3.20;1.48;;;9.40;99.90;;;;;;2069295;28;20185;-66
2024/01/24 03:21:15;;;;;;;1.05;0.70;;;9.40;99.90;;;;;;2061398;28;20186;-66
2024/01/24 03:22:16;;;;;;;4.22;0.90;;;9.40;99.90;;;;;;2045383;28;20227;-67
2024/01/24 03:23:17;;;;;;;2.10;1.00;;;9.40;99.90;;;;;;2044848;28;20223;-65
2024/01/24 03:24:17;;;;;;;1.83;1.10;;;9.50;99.90;;;;;;2061263;28;20693;-65
2024/01/24 03:25:18;;;;;;;4.37;1.00;;;9.40;99.90;;;;;;2069311;28;20276;-66
2024/01/24 03:26:19;;;;;;;4.63;1.20;;;9.40;99.90;;;;;;2069175;28;20194;-66
2024/01/24 03:27:19;;;;;;;2.50;1.10;;;9.40;99.90;;;;;;2070686;28;20576;-66
2024/01/24 03:28:20;;;;;;;2.60;1.10;;;9.40;99.90;;;;;;2059849;28;22484;-66
2024/01/24 03:29:21;;;;;;;1.07;0.87;;;9.40;99.90;;;;;;2060146;28;20343;-66
2024/01/24 03:30:22;;;;;;;3.23;1.10;;;9.40;99.90;;;;;;2061305;28;20253;-67
2024/01/24 03:31:22;;;;;;;2.40;1.00;;;9.40;99.90;;;;;;2057004;28;20222;-65
2024/01/24 03:32:23;;;;;;;2.33;1.10;;;9.40;99.90;;;;;;2053644;28;20235;-65
2024/01/24 03:33:24;;;;;;;3.23;1.10;;;9.40;99.90;;;;;;2045870;28;20739;-67
2024/01/24 03:34:27;;;;;;;1.93;0.97;;;9.40;99.90;;;;;;2060937;28;20938;-65
2024/01/24 03:35:27;;;;;;;6.22;0.93;;;9.40;99.90;;;;;;2061005;28;20714;-66
2024/01/24 03:36:28;;;;;;;2.93;0.90;;;9.40;99.90;;;;;;2060992;28;20230;-66
2024/01/24 03:37:29;;;;;;;2.77;1.07;;;9.40;99.90;;;;;;2061573;28;20230;-66
2024/01/24 03:38:30;;;;;;;3.13;0.90;;;9.30;99.90;;;;;;2062543;28;20285;-67
2024/01/24 03:39:30;;;;;;;2.07;0.80;;;9.40;99.90;;;;;;2061004;28;20643;-66
2024/01/24 03:40:32;;;;;;;2.60;0.80;;;9.40;99.90;;;;;;2061388;28;20222;-66
2024/01/24 03:41:33;;;;;;;3.47;0.85;;;9.40;99.90;;;;;;2069958;28;20705;-66
2024/01/24 03:42:33;;;;;;;2.60;1.10;;;9.30;99.90;;;;;;2070510;28;20222;-66
2024/01/24 03:43:39;;;;;;;1.90;1.00;;;9.30;99.90;;;;;;2061338;28;20281;-66
2024/01/24 03:44:39;;;;;;;1.45;0.90;;;9.30;99.90;;;;;;2053730;28;20322;-65
2024/01/24 03:45:40;;;;;;;2.73;1.50;;;9.30;99.90;;;;;;2059585;28;20306;-66
2024/01/24 03:46:41;;;;;;;1.33;0.87;;;9.30;99.90;;;;;;2070131;28;20225;-66
2024/01/24 03:47:42;;;;;;;3.40;1.33;;;9.30;99.90;;;;;;2061142;28;20226;-66
2024/01/24 03:48:42;;;;;;;2.13;0.97;;;9.30;99.90;;;;;;2053220;28;20240;-67
2024/01/24 03:49:43;;;;;;;1.43;1.07;;;9.30;99.90;;;;;;2052187;28;20235;-66
2024/01/24 03:50:44;;;;;;;2.37;1.20;;;9.30;99.90;;;;;;2059858;28;20935;-67
2024/01/24 03:51:44;;;;;;;4.20;1.10;;;9.30;99.90;;;;;;2059859;28;20725;-67
2024/01/24 03:52:45;;;;;;;1.73;1.00;;;9.30;99.90;;;;;;2053014;28;20574;-67
2024/01/24 03:53:46;;;;;;;3.60;1.03;;;9.30;99.90;;;;;;2061197;28;20218;-65
2024/01/24 03:54:46;;;;;;;2.87;1.00;;;9.30;99.90;;;;;;2069810;28;20304;-66
2024/01/24 03:55:47;;;;;;;1.60;0.80;;;9.30;99.90;;;;;;2069632;28;20263;-66
2024/01/24 03:56:48;;;;;;;1.00;0.90;;;9.20;99.90;;;;;;2060954;28;20244;-65
2024/01/24 03:57:49;;;;;;;2.85;0.80;;;9.20;99.90;;;;;;2060890;28;20722;-65
2024/01/24 03:58:50;;;;;;;2.07;1.00;;;9.30;99.90;;;;;;2070004;28;20221;-64
2024/01/24 03:59:50;;;;;;;1.30;0.87;;;9.30;99.90;;;;;;2061655;28;20277;-66
2024/01/24 04:00:52;;;;;;;1.13;0.80;;;9.30;99.90;;;;;;2061875;28;20233;-64
2024/01/24 04:01:52;;;;;;;1.63;1.10;;;9.40;99.90;;;;;;2061630;28;20214;-66
2024/01/24 04:02:53;;;;;;;1.13;0.90;;;9.40;99.90;;;;;;2059248;28;20286;-66
2024/01/24 04:03:54;;;;;;;1.90;0.70;;;9.30;99.90;;;;;;2060997;28;20317;-66
2024/01/24 04:04:55;;;;;;;2.50;0.90;;;9.30;99.90;;;;;;2060457;28;20230;-66
2024/01/24 04:05:55;;;;;;;2.63;1.10;;;9.30;99.90;;;;;;2069785;28;20462;-64
2024/01/24 04:06:56;;;;;;;1.67;0.90;;;9.30;99.90;;;;;;2068991;28;20233;-64
2024/01/24 04:07:57;;;;;;;6.43;1.63;;;9.30;99.90;;;;;;2066826;28;20225;-67
2024/01/24 04:08:58;;;;;;;3.10;1.37;;;9.20;99.90;;;;;;2068318;28;20283;-66
2024/01/24 04:09:59;;;;;;;2.07;1.00;;;9.20;99.90;;;;;;2070536;28;20228;-66
2024/01/24 04:11:00;;;;;;;0.88;0.60;;;9.20;99.90;;;;;;2060594;28;20217;-65
2024/01/24 04:12:01;;;;;;;2.30;0.90;;;9.20;99.90;;;;;;2060160;28;20226;-65
2024/01/24 04:13:01;;;;;;;3.40;0.90;;;9.20;99.90;;;;;;2069539;28;20689;-65
2024/01/24 04:14:04;;;;;;;4.87;1.27;;;9.30;99.90;;;;;;2057985;28;20613;-66
2024/01/24 04:15:06;;;;;;;1.60;0.90;;;9.20;99.90;;;;;;2061619;28;20245;-66
2024/01/24 04:16:07;;;;;;;2.40;0.93;;;9.20;99.90;;;;;;2069704;28;20244;-66
2024/01/24 04:17:08;;;;;;;3.10;1.10;;;9.20;99.90;;;;;;2060695;28;20190;-66
2024/01/24 04:18:09;;;;;;;1.50;1.00;;;9.20;99.90;;;;;;2060889;28;20198;-67
2024/01/24 04:19:10;;;;;;;2.25;1.25;;;9.20;99.90;;;;;;2067848;28;20193;-65
2024/01/24 04:20:11;;;;;;;4.33;1.37;;;9.20;99.90;;;;;;2069692;28;20680;-67
2024/01/24 04:21:12;;;;;;;3.20;1.20;;;9.20;99.90;;;;;;2060940;28;20190;-66
2024/01/24 04:22:13;;;;;;;2.87;1.10;;;9.20;99.90;;;;;;2052890;28;20241;-66
2024/01/24 04:23:14;;;;;;;2.20;1.00;;;9.20;99.90;;;;;;2060323;28;20301;-66
2024/01/24 04:24:15;;;;;;;2.47;1.03;;;9.20;99.90;;;;;;2069581;28;20178;-67
2024/01/24 04:25:16;;;;;;;1.00;0.88;;;9.20;99.90;;;;;;2060127;28;20237;-66
2024/01/24 04:26:21;;;;;;;1.90;0.90;;;9.20;99.90;;;;;;2061532;28;20186;-67
2024/01/24 04:27:22;;;;;;;2.85;1.10;;;9.20;99.90;;;;;;2069110;28;20233;-65
2024/01/24 04:28:23;;;;;;;2.35;1.20;;;9.20;99.90;;;;;;2069500;28;20225;-65
2024/01/24 04:29:24;;;;;;;1.97;1.13;;;9.20;99.90;;;;;;2062272;28;20654;-65
2024/01/24 04:30:24;;;;;;;2.40;0.90;;;9.20;99.90;;;;;;2060696;28;20237;-66
2024/01/24 04:31:25;;;;;;;1.90;0.77;;;9.20;99.90;;;;;;2066852;28;20265;-67
2024/01/24 04:32:26;;;;;;;3.10;0.93;;;9.20;99.90;;;;;;2069887;28;20229;-67
2024/01/24 04:33:27;;;;;;;2.03;0.73;;;9.20;99.90;;;;;;2069578;28;20858;-66
2024/01/24 04:34:28;;;;;;;4.00;0.88;;;9.20;99.90;;;;;;2069889;28;20712;-65
2024/01/24 04:35:28;;;;;;;2.27;1.13;;;9.20;99.90;;;;;;2069552;28;20233;-65
2024/01/24 04:36:30;;;;;;;2.57;1.10;;;9.20;99.90;;;;;;2061143;28;20226;-66
2024/01/24 04:37:30;;;;;;;1.92;0.95;;;9.30;99.90;;;;;;2059993;28;20225;-66
2024/01/24 04:38:31;;;;;;;2.67;0.97;;;9.30;99.90;;;;;;2058463;28;20253;-65
2024/01/24 04:39:32;;;;;;;1.23;1.00;;;9.20;99.90;;;;;;2052346;28;20667;-65
2024/01/24 04:40:33;;;;;;;3.93;1.00;;;9.30;99.90;;;;;;2063322;28;20341;-65
2024/01/24 04:41:34;;;;;;;2.83;1.30;;;9.30;99.90;;;;;;2068261;28;20256;-66
2024/01/24 04:42:34;;;;;;;2.43;1.23;;;9.30;99.90;;;;;;2068747;28;20228;-66
2024/01/24 04:43:35;;;;;;;3.07;1.77;;;9.30;99.90;;;;;;2067795;28;20225;-67
2024/01/24 04:44:36;;;;;;;4.33;1.30;;;9.30;99.90;;;;;;2069062;28;20221;-66
2024/01/24 04:45:36;;;;;;;2.67;1.13;;;9.40;99.90;;;;;;2068391;28;20312;-66
2024/01/24 04:46:37;;;;;;;2.90;1.10;;;9.40;99.90;;;;;;2069527;28;20315;-66
2024/01/24 04:47:42;;;;;;;5.77;1.50;;;9.40;99.90;;;;;;2069285;28;20284;-66
2024/01/24 04:48:44;;;;;;;2.60;1.20;;;9.40;99.90;;;;;;2068370;28;20240;-66
2024/01/24 04:49:45;;;;;;;4.40;1.30;;;9.40;99.90;;;;;;2068851;28;20279;-66
2024/01/24 04:50:45;;;;;;;1.57;1.10;;;9.50;99.90;;;;;;2067802;28;20229;-66
2024/01/24 04:51:46;;;;;;;9.07;2.03;;;9.40;99.90;;;;;;2061593;28;20368;-66
2024/01/24 04:52:47;;;;;;;6.37;2.40;;;9.50;99.90;;;;;;2053016;28;20218;-66
2024/01/24 04:53:48;;;;;;;2.33;1.00;;;9.60;99.90;;;;;;2059973;28;20222;-66
2024/01/24 04:54:49;;;;;;;2.30;1.20;;;9.60;99.90;;;;;;2059166;28;20460;-66
2024/01/24 04:55:50;;;;;;;4.10;1.40;;;9.50;99.90;;;;;;2060503;28;20225;-66
2024/01/24 04:56:51;;;;;;;3.40;1.40;;;9.50;99.90;;;;;;2068771;28;20221;-66
2024/01/24 04:57:51;;;;;;;2.37;1.37;;;9.50;99.90;;;;;;2060317;28;20224;-67
2024/01/24 04:58:52;;;;;;;3.43;1.20;;;9.60;99.90;;;;;;2060143;28;20225;-66
2024/01/24 04:59:53;;;;;;;1.87;0.90;;;9.60;99.90;;;;;;2060787;28;20229;-65
2024/01/24 05:00:53;;;;;;;3.83;1.40;;;9.50;99.90;;;;;;2061946;28;20221;-67
2024/01/24 05:01:54;;;;;;;1.67;1.30;;;9.50;99.90;;;;;;2068735;28;20237;-65
2024/01/24 05:02:54;;;;;;;1.43;1.30;;;9.50;99.90;;;;;;2060408;28;20284;-65
2024/01/24 05:03:55;;;;;;;2.17;1.00;;;9.50;99.90;;;;;;2060558;28;20301;-65
2024/01/24 05:04:56;;;;;;;2.30;1.50;;;9.60;99.90;;;;;;2060638;28;20308;-66
2024/01/24 05:05:57;;;;;;;2.60;1.07;;;9.60;99.90;;;;;;2060537;28;20233;-65
2024/01/24 05:06:57;;;;;;;1.50;0.97;;;9.60;99.90;;;;;;2058042;28;20218;-65
2024/01/24 05:07:58;;;;;;;2.83;0.93;;;9.60;99.90;;;;;;2053117;28;20254;-66
2024/01/24 05:08:59;;;;;;;1.40;0.90;;;9.60;99.90;;;;;;2060332;28;20293;-66
2024/01/24 05:10:01;;;;;;;1.63;1.00;;;9.60;99.90;;;;;;2069696;28;20279;-66
2024/01/24 05:11:02;;;;;;;1.10;0.80;;;9.70;99.90;;;;;;2050969;28;20282;-67
2024/01/24 05:12:03;;;;;;;1.60;0.80;;;9.70;99.90;;;;;;2051637;28;20191;-66
2024/01/24 05:13:04;;;;;;;1.90;0.95;;;9.80;99.90;;;;;;2051064;28;20207;-66
2024/01/24 05:14:05;;;;;;;1.40;1.20;;;9.70;99.90;;;;;;2051116;28;20648;-66
2024/01/24 05:15:08;;;;;;;2.70;1.07;;;9.80;99.90;;;;;;2062446;28;20186;-67
2024/01/24 05:16:08;;;;;;;0.93;0.82;;;9.70;99.90;;;;;;2060502;28;20190;-66
2024/01/24 05:17:09;;;;;;;1.87;1.07;;;9.80;99.90;;;;;;2060612;28;20201;-66
2024/01/24 05:18:10;;;;;;;1.10;0.90;;;9.80;99.90;;;;;;2070913;28;20217;-67
2024/01/24 05:19:10;;;;;;;5.97;1.67;;;9.70;99.90;;;;;;2061791;28;20269;-66
2024/01/24 05:20:11;;;;;;;5.03;1.77;;;9.70;99.90;;;;;;2062578;28;20636;-66
2024/01/24 05:21:12;;;;;;;6.03;1.60;;;9.80;99.90;;;;;;2070983;28;20191;-67
2024/01/24 05:22:13;;;;;;;3.27;1.00;;;9.80;99.90;;;;;;2070950;28;20224;-66